createdAt,value
2023-02-20T00:01:14.085Z,1.48
2023-02-20T00:04:18.096Z,1.38
2023-02-20T00:07:22.424Z,1.42
2023-02-20T00:10:27.491Z,1.62
2023-02-20T00:13:31.791Z,1.62
2023-02-20T00:16:36.957Z,1.74
2023-02-20T00:19:42.445Z,1.78
2023-02-20T00:22:46.552Z,1.82
2023-02-20T00:25:50.441Z,1.71
2023-02-20T00:28:54.554Z,1.65
2023-02-20T00:31:58.520Z,1.80
2023-02-20T00:35:02.422Z,1.91
2023-02-20T00:38:06.480Z,2.38
2023-02-20T00:41:11.752Z,2.03
2023-02-20T00:44:15.878Z,2.02
2023-02-20T00:47:19.966Z,1.99
2023-02-20T00:50:23.868Z,1.97
2023-02-20T00:53:27.725Z,2.13
2023-02-20T00:56:31.719Z,1.99
2023-02-20T00:59:35.945Z,1.98
2023-02-20T01:02:39.666Z,2.09
2023-02-20T01:05:43.555Z,2.01
2023-02-20T01:08:47.868Z,2.00
2023-02-20T01:11:52.173Z,2.05
2023-02-20T01:14:56.076Z,2.31
2023-02-20T01:18:00.047Z,1.99
2023-02-20T01:21:03.880Z,2.12
2023-02-20T01:24:07.794Z,2.08
2023-02-20T01:27:11.768Z,2.17
2023-02-20T01:30:15.885Z,2.20
2023-02-20T01:33:19.627Z,2.15
2023-02-20T01:36:23.802Z,2.15
2023-02-20T01:39:27.956Z,2.19
2023-02-20T01:42:31.807Z,2.13
2023-02-20T01:45:35.565Z,2.24
2023-02-20T01:48:40.319Z,2.24
2023-02-20T01:51:44.335Z,2.22
2023-02-20T01:54:48.311Z,2.16
2023-02-20T01:57:52.007Z,2.30
2023-02-20T02:00:55.972Z,2.50
2023-02-20T02:04:00.045Z,2.53
2023-02-20T02:07:04.371Z,2.16
2023-02-20T02:10:08.283Z,2.25
2023-02-20T02:13:11.891Z,2.13
2023-02-20T02:16:18.430Z,2.21
2023-02-20T02:19:22.210Z,2.34
2023-02-20T02:22:26.958Z,2.36
2023-02-20T02:25:30.867Z,2.30
2023-02-20T02:28:34.788Z,2.07
2023-02-20T02:31:38.694Z,2.19
2023-02-20T02:34:42.790Z,2.27
2023-02-20T02:37:46.822Z,2.16
2023-02-20T02:40:51.206Z,2.41
2023-02-20T02:43:55.261Z,2.26
2023-02-20T02:46:59.364Z,2.32
2023-02-20T02:50:03.361Z,2.32
2023-02-20T02:53:10.539Z,2.21
2023-02-20T02:56:14.705Z,2.41
2023-02-20T02:59:18.813Z,2.15
2023-02-20T03:02:22.683Z,2.36
2023-02-20T03:05:26.655Z,2.14
2023-02-20T03:08:30.741Z,2.13
2023-02-20T03:11:34.755Z,2.33
2023-02-20T03:14:38.535Z,2.17
2023-02-20T03:17:42.616Z,2.09
2023-02-20T03:20:46.534Z,2.21
2023-02-20T03:23:50.398Z,2.08
2023-02-20T03:26:54.202Z,2.26
2023-02-20T03:29:58.141Z,2.45
2023-02-20T03:33:02.143Z,2.30
2023-02-20T03:36:06.294Z,2.11
2023-02-20T03:39:12.694Z,2.38
2023-02-20T03:42:16.919Z,2.43
2023-02-20T03:45:21.564Z,2.43
2023-02-20T03:48:25.676Z,2.48
2023-02-20T03:51:30.045Z,2.60
2023-02-20T03:54:33.722Z,2.69
2023-02-20T03:57:37.683Z,2.50
2023-02-20T04:00:41.425Z,2.46
2023-02-20T04:03:45.672Z,2.58
2023-02-20T04:06:49.473Z,2.88
2023-02-20T04:09:53.602Z,2.97
2023-02-20T04:12:57.453Z,2.81
2023-02-20T04:16:01.489Z,2.82
2023-02-20T04:19:05.531Z,3.06
2023-02-20T04:22:11.004Z,2.86
2023-02-20T04:25:16.974Z,2.97
2023-02-20T04:28:21.192Z,2.94
2023-02-20T04:31:24.826Z,2.89
2023-02-20T04:34:30.020Z,3.00
2023-02-20T04:37:34.428Z,2.97
2023-02-20T04:40:38.542Z,2.94
2023-02-20T04:43:42.560Z,2.96
2023-02-20T04:46:46.390Z,3.01
2023-02-20T04:49:50.620Z,2.91
2023-02-20T04:52:54.761Z,3.18
2023-02-20T04:55:58.795Z,3.07
2023-02-20T04:59:02.776Z,3.53
2023-02-20T05:02:09.123Z,3.59
2023-02-20T05:05:14.477Z,3.67
2023-02-20T05:08:20.327Z,3.62
2023-02-20T05:11:24.577Z,3.61
2023-02-20T05:14:28.363Z,3.66
2023-02-20T05:17:32.491Z,3.56
2023-02-20T05:20:37.919Z,3.41
2023-02-20T05:23:43.348Z,3.61
2023-02-20T05:26:47.792Z,3.71
2023-02-20T05:29:53.049Z,3.35
2023-02-20T05:32:57.154Z,3.57
2023-02-20T05:36:00.873Z,3.63
2023-02-20T05:39:05.018Z,3.58
2023-02-20T05:42:09.372Z,4.16
2023-02-20T05:45:13.322Z,3.82
2023-02-20T05:48:19.362Z,3.86
2023-02-20T05:51:23.272Z,3.84
2023-02-20T05:54:27.279Z,4.02
2023-02-20T05:57:31.708Z,4.58
2023-02-20T06:00:36.164Z,4.67
2023-02-20T06:03:40.194Z,4.18
2023-02-20T06:06:44.145Z,4.03
2023-02-20T06:09:47.928Z,3.94
2023-02-20T06:12:52.297Z,3.98
2023-02-20T06:15:56.454Z,3.97
2023-02-20T06:19:00.380Z,3.90
2023-02-20T06:25:32.879Z,4.06
2023-02-20T06:28:36.655Z,4.21
2023-02-20T06:31:41.127Z,3.97
2023-02-20T06:34:45.123Z,4.21
2023-02-20T06:37:49.066Z,4.13
2023-02-20T06:40:52.772Z,4.25
2023-02-20T06:43:57.162Z,4.40
2023-02-20T06:47:03.575Z,4.06
2023-02-20T06:50:07.413Z,4.17
2023-02-20T06:53:11.436Z,4.49
2023-02-20T06:56:15.383Z,4.63
2023-02-20T06:59:19.414Z,4.50
2023-02-20T07:02:23.743Z,4.65
2023-02-20T07:05:27.616Z,4.96
2023-02-20T07:08:31.386Z,4.86
2023-02-20T07:11:35.019Z,8.53
2023-02-20T07:14:39.261Z,4.81
2023-02-20T07:17:43.550Z,4.38
2023-02-20T07:20:49.654Z,5.64
2023-02-20T07:23:55.749Z,5.97
2023-02-20T07:27:01.016Z,5.33
2023-02-20T07:30:05.262Z,5.24
2023-02-20T07:33:11.482Z,5.17
2023-02-20T07:36:17.240Z,5.28
2023-02-20T07:39:21.217Z,5.35
2023-02-20T07:42:25.193Z,5.15
2023-02-20T07:45:30.329Z,5.37
2023-02-20T07:48:34.260Z,5.27
2023-02-20T07:51:41.109Z,4.79
2023-02-20T07:54:45.559Z,5.36
2023-02-20T07:57:50.077Z,5.24
2023-02-20T08:00:54.258Z,5.70
2023-02-20T08:03:57.999Z,5.20
2023-02-20T08:07:01.914Z,5.13
2023-02-20T08:10:06.275Z,4.72
2023-02-20T08:13:10.868Z,4.83
2023-02-20T08:16:15.215Z,4.49
2023-02-20T08:19:20.672Z,4.49
2023-02-20T08:22:33.318Z,4.45
2023-02-20T08:25:45.352Z,4.75
2023-02-20T08:28:49.756Z,4.64
2023-02-20T08:31:53.841Z,4.50
2023-02-20T08:34:57.742Z,4.57
2023-02-20T08:38:03.694Z,4.09
2023-02-20T08:41:07.532Z,4.24
2023-02-20T08:44:11.589Z,4.29
2023-02-20T08:47:15.346Z,4.61
2023-02-20T08:50:20.611Z,4.58
2023-02-20T08:53:24.310Z,4.65
2023-02-20T08:56:28.292Z,4.53
2023-02-20T08:59:32.166Z,4.63
2023-02-20T09:02:37.494Z,4.61
2023-02-20T09:05:41.786Z,4.62
2023-02-20T09:08:45.428Z,4.66
2023-02-20T09:11:49.549Z,5.23
2023-02-20T09:14:53.575Z,5.45
2023-02-20T09:17:57.559Z,5.32
2023-02-20T09:21:01.391Z,5.78
2023-02-20T09:24:08.738Z,5.62
2023-02-20T09:27:13.267Z,5.81
2023-02-20T09:30:17.365Z,5.43
2023-02-20T09:33:21.382Z,5.50
2023-02-20T09:36:25.793Z,5.82
2023-02-20T09:39:29.995Z,5.56
2023-02-20T09:42:34.134Z,5.81
2023-02-20T09:45:42.397Z,5.98
2023-02-20T09:48:46.547Z,5.69
2023-02-20T09:51:50.375Z,5.88
2023-02-20T09:54:54.377Z,7.14
2023-02-20T09:57:58.151Z,5.84
2023-02-20T10:01:02.444Z,5.83
2023-02-20T10:04:06.666Z,5.36
2023-02-20T10:07:10.640Z,5.36
2023-02-20T10:10:14.657Z,5.82
2023-02-20T10:13:18.616Z,5.30
2023-02-20T10:16:23.098Z,5.06
2023-02-20T10:19:27.356Z,5.16
2023-02-20T10:22:31.060Z,4.99
2023-02-20T10:25:35.268Z,4.80
2023-02-20T10:28:39.313Z,5.06
2023-02-20T10:31:45.430Z,5.17
2023-02-20T10:34:49.425Z,5.32
2023-02-20T10:37:53.485Z,5.31
2023-02-20T10:40:57.382Z,5.50
2023-02-20T10:44:04.502Z,5.42
2023-02-20T10:47:08.196Z,5.11
2023-02-20T10:50:13.555Z,5.44
2023-02-20T10:53:17.804Z,5.31
2023-02-20T10:56:21.799Z,5.59
2023-02-20T10:59:26.472Z,5.73
2023-02-20T11:02:30.271Z,5.72
2023-02-20T11:05:34.425Z,5.74
2023-02-20T11:08:38.464Z,5.66
2023-02-20T11:11:44.221Z,5.87
2023-02-20T11:14:49.199Z,5.74
2023-02-20T11:17:53.013Z,5.88
2023-02-20T11:20:58.080Z,5.80
2023-02-20T11:24:01.929Z,6.18
2023-02-20T11:27:06.022Z,6.04
2023-02-20T11:30:10.203Z,5.84
2023-02-20T11:33:14.343Z,5.85
2023-02-20T11:36:20.825Z,5.81
2023-02-20T11:39:25.386Z,5.77
2023-02-20T11:42:29.474Z,6.10
2023-02-20T11:45:34.616Z,5.97
2023-02-20T11:48:40.711Z,6.06
2023-02-20T11:51:45.094Z,6.15
2023-02-20T11:55:01.472Z,6.50
2023-02-20T12:01:27.874Z,6.13
2023-02-20T12:08:43.134Z,6.11
2023-02-20T12:11:47.195Z,6.19
2023-02-20T12:14:51.275Z,5.85
2023-02-20T12:17:55.128Z,5.94
2023-02-20T12:20:59.177Z,6.49
2023-02-20T12:24:04.136Z,5.95
2023-02-20T12:27:19.765Z,6.23
2023-02-20T13:21:37.903Z,7.27
2023-02-20T16:58:32.457Z,8.47
2023-02-20T17:01:42.450Z,8.25
2023-02-20T17:04:47.962Z,8.55
2023-02-20T17:07:54.043Z,8.93
2023-02-20T17:14:32.575Z,9.38
2023-02-20T17:28:42.251Z,9.07
2023-02-20T17:38:09.941Z,8.97
2023-02-20T17:49:21.220Z,8.91
2023-02-20T17:52:28.079Z,8.65
2023-02-20T17:56:02.586Z,8.84
2023-02-20T17:58:56.587Z,8.58
2023-02-20T18:02:49.292Z,8.86
2023-02-20T18:05:53.045Z,8.55
2023-02-20T18:12:17.436Z,8.94
2023-02-20T18:15:21.332Z,8.63
2023-02-20T18:18:25.584Z,8.45
2023-02-20T18:21:30.889Z,8.97
2023-02-20T18:24:35.198Z,8.78
2023-02-20T18:27:39.052Z,8.92
2023-02-20T18:30:43.542Z,8.75
2023-02-20T18:33:48.116Z,8.92
2023-02-20T18:36:52.041Z,9.11
2023-02-20T18:39:56.074Z,9.48
2023-02-20T18:43:00.129Z,9.33
2023-02-20T18:46:04.377Z,9.87
2023-02-20T18:49:08.738Z,9.73
2023-02-20T18:52:14.109Z,9.45
2023-02-20T18:55:18.553Z,9.95
2023-02-20T18:58:22.472Z,10.12
2023-02-20T19:01:31.838Z,10.47
2023-02-20T19:04:37.656Z,11.05
2023-02-20T19:07:46.757Z,10.96
2023-02-20T19:10:51.036Z,11.12
2023-02-20T19:13:54.900Z,11.63
2023-02-20T19:16:59.025Z,12.62
2023-02-20T19:20:02.923Z,12.95
2023-02-20T19:23:07.046Z,12.53
2023-02-20T19:26:12.581Z,12.57
2023-02-20T19:29:17.125Z,12.21
2023-02-20T19:32:24.159Z,12.84
2023-02-20T19:35:28.540Z,12.43
2023-02-20T19:38:33.881Z,12.79
2023-02-20T19:41:38.035Z,12.30
2023-02-20T19:44:41.643Z,12.08
2023-02-20T19:47:48.845Z,11.53
2023-02-20T19:50:55.455Z,11.45
2023-02-20T19:54:01.405Z,11.23
2023-02-20T19:57:08.590Z,11.56
2023-02-20T20:00:12.734Z,11.18
2023-02-20T20:03:16.970Z,11.35
2023-02-20T20:06:20.959Z,11.06
2023-02-20T20:09:35.531Z,11.22
2023-02-20T20:12:40.860Z,11.40
2023-02-20T20:15:44.801Z,11.99
2023-02-20T20:18:50.949Z,12.02
2023-02-20T20:21:55.095Z,12.05
2023-02-20T20:24:59.019Z,12.39
2023-02-20T20:28:03.040Z,12.49
2023-02-20T20:31:07.306Z,12.85
2023-02-20T20:34:11.287Z,12.51
2023-02-20T20:37:15.075Z,12.94
2023-02-20T20:40:21.141Z,12.54
2023-02-20T20:43:27.805Z,12.61
2023-02-20T20:46:32.135Z,13.74
2023-02-20T20:49:40.549Z,13.45
2023-02-20T20:52:46.720Z,13.29
2023-02-20T20:55:54.276Z,13.51
2023-02-20T20:58:59.485Z,13.62
2023-02-20T21:02:03.842Z,13.59
2023-02-20T21:05:10.683Z,14.06
2023-02-20T21:08:15.532Z,13.04
2023-02-20T21:11:19.378Z,12.79
2023-02-20T21:14:24.821Z,12.74
2023-02-20T21:17:29.418Z,12.88
2023-02-20T21:20:35.835Z,12.69
2023-02-20T21:23:40.724Z,13.23
2023-02-20T21:26:44.650Z,12.50
2023-02-20T21:29:53.266Z,12.34
2023-02-20T21:32:57.553Z,11.91
2023-02-20T21:36:01.856Z,11.17
2023-02-20T21:39:10.514Z,11.28
2023-02-20T21:42:18.565Z,11.00
2023-02-20T21:45:27.023Z,10.59
2023-02-20T21:48:32.630Z,10.81
2023-02-20T21:51:36.542Z,11.29
2023-02-20T21:54:41.924Z,10.95
2023-02-20T21:57:47.261Z,10.81
2023-02-20T22:00:51.496Z,10.77
2023-02-20T22:03:56.262Z,11.20
2023-02-20T22:07:00.436Z,11.54
2023-02-20T22:10:04.593Z,12.03
2023-02-20T22:13:10.291Z,12.24
2023-02-20T22:16:13.833Z,12.13
2023-02-20T22:19:21.753Z,11.58
2023-02-20T22:22:27.165Z,11.05
2023-02-20T22:25:31.700Z,11.14
2023-02-20T22:28:37.249Z,11.34
2023-02-20T22:31:41.808Z,11.49
2023-02-20T22:38:17.613Z,11.40
2023-02-20T22:42:33.257Z,11.73
2023-02-20T22:44:52.654Z,11.74
2023-02-20T22:48:00.230Z,11.76
2023-02-20T22:51:06.671Z,12.64
2023-02-20T22:54:12.887Z,12.53
2023-02-20T22:57:21.399Z,11.99
2023-02-20T23:00:29.330Z,12.31
2023-02-20T23:13:48.721Z,12.46
2023-02-20T23:16:54.788Z,11.94
2023-02-20T23:20:10.150Z,11.86
2023-02-20T23:23:25.282Z,11.31
2023-02-20T23:26:54.796Z,11.61
2023-02-20T23:33:22.834Z,12.25
2023-02-20T23:40:04.599Z,11.65
2023-02-20T23:43:15.612Z,11.76
2023-02-20T23:46:22.637Z,11.50
2023-02-20T23:49:30.301Z,11.42
2023-02-20T23:56:02.242Z,11.70
2023-02-20T23:59:12.905Z,12.00
